Time;durP1;ratioP1;P1;durP2;ratioP2;P2;SDS_P1;SDS_P2;PMS_P1;PMS_P2;Temp;Humidity;BMP_temperature;BMP_pressure;BME280_temperature;BME280_humidity;BME280_pressure;Samples;Min_cycle;Max_cycle;Signal;HPM_P1;HPM_P2
2022/06/15 00:00:00;;;;;;;0.50;0.50;;;21.70;61.40;;;;;;4194823;28;20824;-66
2022/06/15 00:02:23;;;;;;;0.00;0.00;;;21.70;61.40;;;;;;4194155;28;20045;-66
2022/06/15 00:04:45;;;;;;;0.10;0.10;;;21.70;61.40;;;;;;4194511;28;20119;-66
2022/06/15 00:07:07;;;;;;;0.00;0.00;;;21.70;61.60;;;;;;4194391;28;20128;-66
2022/06/15 00:09:30;;;;;;;0.90;0.43;;;21.70;61.60;;;;;;4194489;28;20104;-66
2022/06/15 00:11:52;;;;;;;0.00;0.00;;;21.70;61.50;;;;;;4194238;28;20044;-66
2022/06/15 00:14:17;;;;;;;0.22;0.22;;;21.70;61.50;;;;;;4194418;28;20044;-66
2022/06/15 00:16:39;;;;;;;0.00;0.00;;;21.70;61.70;;;;;;4194099;28;20062;-66
2022/06/15 00:19:04;;;;;;;0.00;0.00;;;21.60;61.60;;;;;;4193905;28;20080;-66
2022/06/15 00:21:26;;;;;;;0.95;0.65;;;21.70;61.70;;;;;;4194393;28;20528;-66
2022/06/15 00:23:48;;;;;;;0.00;0.00;;;21.60;61.70;;;;;;4194456;28;20882;-66
2022/06/15 00:26:10;;;;;;;0.00;0.00;;;21.60;61.70;;;;;;4194291;28;20049;-65
2022/06/15 00:28:33;;;;;;;0.00;0.00;;;21.60;61.80;;;;;;4194323;28;20045;-66
2022/06/15 00:30:55;;;;;;;0.00;0.00;;;21.60;61.70;;;;;;4193926;28;20071;-67
2022/06/15 00:33:22;;;;;;;0.00;0.00;;;21.60;61.60;;;;;;4194178;28;20048;-67
2022/06/15 00:35:49;;;;;;;0.90;0.32;;;21.60;61.70;;;;;;4193783;28;20047;-67
2022/06/15 00:38:11;;;;;;;0.00;0.00;;;21.60;61.80;;;;;;4193892;28;20056;-67
2022/06/15 00:40:34;;;;;;;0.00;0.00;;;21.60;61.80;;;;;;4192342;28;20127;-67
2022/06/15 00:42:57;;;;;;;0.00;0.00;;;21.60;61.90;;;;;;4192243;28;20127;-66
2022/06/15 00:45:19;;;;;;;0.00;0.00;;;21.60;61.90;;;;;;4193796;28;20510;-67
2022/06/15 00:47:46;;;;;;;0.00;0.00;;;21.50;61.90;;;;;;4193909;28;20075;-66
2022/06/15 00:50:10;;;;;;;0.00;0.00;;;21.60;62.00;;;;;;4193624;28;20059;-66
2022/06/15 00:52:42;;;;;;;0.00;0.00;;;21.60;62.00;;;;;;4194091;28;20043;-66
2022/06/15 00:55:06;;;;;;;;;;;21.60;62.10;;;;;;4194076;28;20502;-66
2022/06/15 00:57:28;;;;;;;0.10;0.10;;;21.50;61.90;;;;;;4192226;28;19931;-66
2022/06/15 00:59:55;;;;;;;0.15;0.15;;;21.50;61.80;;;;;;4192615;28;20095;-66
2022/06/15 01:02:17;;;;;;;0.00;0.00;;;21.50;61.90;;;;;;4192974;28;20102;-66
2022/06/15 01:04:46;;;;;;;0.00;0.00;;;21.50;61.90;;;;;;4193312;28;20126;-66
2022/06/15 01:07:26;;;;;;;0.00;0.00;;;21.50;62.00;;;;;;4193556;28;20070;-65
2022/06/15 01:09:57;;;;;;;0.03;0.03;;;21.50;62.00;;;;;;4193141;28;20102;-65
2022/06/15 01:12:26;;;;;;;0.00;0.00;;;21.50;62.10;;;;;;4191558;28;20053;-66
2022/06/15 01:15:09;;;;;;;0.00;0.00;;;21.50;62.00;;;;;;4193057;28;20044;-66
2022/06/15 01:17:57;;;;;;;0.00;0.00;;;21.40;62.00;;;;;;4192671;28;20445;-66
2022/06/15 01:20:45;;;;;;;1.27;0.85;;;21.40;62.20;;;;;;4191677;28;20483;-67
2022/06/15 01:23:39;;;;;;;0.00;0.00;;;21.50;62.30;;;;;;4192721;28;20063;-66
2022/06/15 01:26:23;;;;;;;0.00;0.00;;;21.40;62.10;;;;;;4191223;28;20090;-65
2022/06/15 01:28:47;;;;;;;0.00;0.00;;;21.40;62.10;;;;;;4193051;28;20055;-67
2022/06/15 01:31:22;;;;;;;0.08;0.08;;;21.40;62.20;;;;;;4192405;28;20055;-66
2022/06/15 01:33:54;;;;;;;0.80;0.80;;;21.40;62.20;;;;;;4175040;28;20378;-66
2022/06/15 01:36:24;;;;;;;0.15;0.15;;;21.40;62.20;;;;;;4176236;28;20469;-66
2022/06/15 01:38:53;;;;;;;0.00;0.00;;;21.40;62.30;;;;;;4175043;28;20083;-66
2022/06/15 01:41:21;;;;;;;0.20;0.20;;;21.40;62.40;;;;;;4174885;28;20492;-66
2022/06/15 01:43:49;;;;;;;0.08;0.08;;;21.40;62.40;;;;;;4174790;28;20047;-65
2022/06/15 01:46:14;;;;;;;0.10;0.10;;;21.40;62.40;;;;;;4160570;28;20053;-66
2022/06/15 01:48:38;;;;;;;0.22;0.22;;;21.30;62.40;;;;;;4192870;28;20052;-65
2022/06/15 01:51:04;;;;;;;0.00;0.00;;;21.30;62.40;;;;;;4193092;28;20445;-65
2022/06/15 01:53:30;;;;;;;0.08;0.08;;;21.30;63.30;;;;;;4192524;28;20072;-65
2022/06/15 01:56:01;;;;;;;0.30;0.30;;;21.30;62.50;;;;;;4191424;28;20052;-65
2022/06/15 01:58:26;;;;;;;0.00;0.00;;;21.30;62.50;;;;;;4191072;28;20490;-66
2022/06/15 02:00:56;;;;;;;0.03;0.03;;;21.30;62.50;;;;;;4191050;28;20102;-66
2022/06/15 02:03:31;;;;;;;0.15;0.15;;;21.30;62.50;;;;;;4177335;28;20079;-66
2022/06/15 02:05:59;;;;;;;0.00;0.00;;;21.30;62.60;;;;;;4191091;28;20048;-65
2022/06/15 02:08:28;;;;;;;0.00;0.00;;;21.30;62.60;;;;;;4219981;28;20055;-65
2022/06/15 02:10:57;;;;;;;0.00;0.00;;;21.30;62.60;;;;;;4190840;28;20466;-65
2022/06/15 02:13:26;;;;;;;0.00;0.00;;;21.30;62.70;;;;;;4190713;28;20047;-66
2022/06/15 02:15:55;;;;;;;0.00;0.00;;;21.20;62.60;;;;;;4189953;28;20170;-66
2022/06/15 02:18:23;;;;;;;0.00;0.00;;;21.20;62.60;;;;;;4190774;28;20045;-66
2022/06/15 02:20:51;;;;;;;0.00;0.00;;;21.20;62.60;;;;;;4192561;28;20095;-66
2022/06/15 02:23:17;;;;;;;0.45;0.45;;;21.20;62.70;;;;;;4190849;28;20051;-65
2022/06/15 02:25:45;;;;;;;0.00;0.00;;;21.20;63.60;;;;;;4192751;28;20052;-65
2022/06/15 02:28:08;;;;;;;0.00;0.00;;;21.20;62.70;;;;;;4191234;28;20084;-65
2022/06/15 02:30:33;;;;;;;0.00;0.00;;;21.20;62.70;;;;;;4190756;28;20099;-66
2022/06/15 02:33:10;;;;;;;0.00;0.00;;;21.20;62.80;;;;;;4190865;28;20071;-66
2022/06/15 02:35:34;;;;;;;0.00;0.00;;;21.20;62.80;;;;;;4190849;28;20068;-66
2022/06/15 02:37:57;;;;;;;0.00;0.00;;;21.20;63.70;;;;;;4191067;28;20097;-65
2022/06/15 02:40:23;;;;;;;0.88;0.88;;;21.20;62.90;;;;;;4190638;28;20066;-66
2022/06/15 02:42:46;;;;;;;0.65;0.47;;;21.10;62.90;;;;;;4191242;28;20443;-66
2022/06/15 02:45:19;;;;;;;0.10;0.10;;;21.20;63.00;;;;;;4186336;28;20372;-66
2022/06/15 02:47:45;;;;;;;0.20;0.20;;;21.10;62.90;;;;;;4190717;28;20056;-65
2022/06/15 02:50:08;;;;;;;0.20;0.20;;;21.10;62.90;;;;;;4190832;28;20041;-65
2022/06/15 02:52:38;;;;;;;0.00;0.00;;;21.10;63.00;;;;;;4190956;28;20048;-65
2022/06/15 02:55:02;;;;;;;0.00;0.00;;;21.10;62.90;;;;;;4190528;28;20052;-65
2022/06/15 02:57:25;;;;;;;0.00;0.00;;;21.10;62.90;;;;;;4190609;28;20114;-65
2022/06/15 02:59:49;;;;;;;2.92;1.17;;;21.10;63.00;;;;;;4190444;28;20048;-65
2022/06/15 03:02:15;;;;;;;0.00;0.00;;;21.10;63.10;;;;;;4193442;28;20041;-65
2022/06/15 03:04:40;;;;;;;0.00;0.00;;;21.10;63.00;;;;;;4194222;28;20121;-65
2022/06/15 03:07:02;;;;;;;0.00;0.00;;;21.10;63.00;;;;;;4194224;28;20060;-64
2022/06/15 03:09:26;;;;;;;0.30;0.30;;;21.10;63.10;;;;;;4193817;28;20059;-65
2022/06/15 03:11:48;;;;;;;0.10;0.10;;;21.10;63.10;;;;;;4195546;28;20494;-65
2022/06/15 03:14:26;;;;;;;2.55;1.02;;;21.10;63.10;;;;;;4178142;28;20064;-65
2022/06/15 03:16:49;;;;;;;0.00;0.00;;;21.00;63.00;;;;;;4176763;28;20107;-66
2022/06/15 03:19:14;;;;;;;1.80;0.90;;;21.10;63.20;;;;;;4177488;28;20111;-65
2022/06/15 03:21:37;;;;;;;0.00;0.00;;;21.10;63.20;;;;;;4144139;28;20612;-66
2022/06/15 03:23:59;;;;;;;0.00;0.00;;;21.00;63.10;;;;;;4145133;28;20477;-66
2022/06/15 03:26:22;;;;;;;0.00;0.00;;;21.00;63.10;;;;;;4148756;28;20100;-66
2022/06/15 03:28:45;;;;;;;0.00;0.00;;;21.00;63.10;;;;;;4177002;28;20048;-67
2022/06/15 03:31:11;;;;;;;0.00;0.00;;;21.00;63.10;;;;;;4176541;28;20052;-67
2022/06/15 03:33:34;;;;;;;0.00;0.00;;;21.00;63.10;;;;;;4176769;28;20091;-67
2022/06/15 03:35:59;;;;;;;0.00;0.00;;;21.00;63.20;;;;;;4176933;28;20060;-67
2022/06/15 03:38:27;;;;;;;0.00;0.00;;;21.00;63.20;;;;;;4176472;28;20403;-67
2022/06/15 03:41:03;;;;;;;0.00;0.00;;;21.00;63.30;;;;;;4176779;28;20055;-67
2022/06/15 03:43:29;;;;;;;0.25;0.25;;;21.00;63.30;;;;;;4176612;28;20063;-66
2022/06/15 03:45:51;;;;;;;0.00;0.00;;;21.00;63.30;;;;;;4176508;28;20095;-66
2022/06/15 03:48:14;;;;;;;0.10;0.10;;;21.00;63.30;;;;;;4176985;28;20107;-67
2022/06/15 03:50:39;;;;;;;0.00;0.00;;;21.00;63.30;;;;;;4176808;28;20047;-67
2022/06/15 03:53:02;;;;;;;0.00;0.00;;;21.00;63.30;;;;;;4176422;28;20110;-66
2022/06/15 03:55:28;;;;;;;0.00;0.00;;;20.90;63.30;;;;;;4144081;28;20100;-67
2022/06/15 03:57:50;;;;;;;0.00;0.00;;;20.90;63.30;;;;;;4171811;28;20103;-66
2022/06/15 04:00:17;;;;;;;0.25;0.10;;;20.90;63.40;;;;;;4143791;28;20160;-66
2022/06/15 04:02:46;;;;;;;0.00;0.00;;;20.90;63.40;;;;;;4145035;28;20050;-66
2022/06/15 04:05:20;;;;;;;0.00;0.00;;;20.90;63.40;;;;;;4143437;28;20115;-66
2022/06/15 04:10:22;;;;;;;0.00;0.00;;;20.90;63.50;;;;;;4176520;28;20423;-66
2022/06/15 04:12:45;;;;;;;0.00;0.00;;;20.90;63.50;;;;;;4175994;28;20045;-66
2022/06/15 04:15:10;;;;;;;0.10;0.10;;;20.90;63.50;;;;;;4176603;28;20051;-66
2022/06/15 04:17:38;;;;;;;0.10;0.10;;;20.90;63.50;;;;;;4192578;28;20099;-66
2022/06/15 04:22:50;;;;;;;0.00;0.00;;;20.90;63.60;;;;;;4192459;28;20040;-66
2022/06/15 04:25:12;;;;;;;0.00;0.00;;;20.90;63.50;;;;;;4192273;28;20593;-67
2022/06/15 04:27:36;;;;;;;0.55;0.55;;;20.90;63.60;;;;;;4192915;28;20059;-67
2022/06/15 04:30:00;;;;;;;0.00;0.00;;;20.90;63.60;;;;;;4192421;28;20113;-67
2022/06/15 04:32:24;;;;;;;0.00;0.00;;;20.80;63.50;;;;;;4192744;28;20395;-67
2022/06/15 04:34:49;;;;;;;0.00;0.00;;;20.90;63.70;;;;;;4192647;28;20056;-67
2022/06/15 04:37:13;;;;;;;0.32;0.32;;;20.80;64.50;;;;;;4192393;28;20072;-66
2022/06/15 04:39:41;;;;;;;0.00;0.00;;;20.80;63.60;;;;;;4191550;28;20049;-67
2022/06/15 04:42:04;;;;;;;0.00;0.00;;;20.90;63.70;;;;;;4193514;28;20067;-66
2022/06/15 04:44:26;;;;;;;0.00;0.00;;;20.90;63.80;;;;;;4193594;28;20396;-66
2022/06/15 04:46:49;;;;;;;0.00;0.00;;;20.90;63.80;;;;;;4192587;28;20047;-67
2022/06/15 04:49:11;;;;;;;0.10;0.10;;;20.80;63.80;;;;;;4192233;28;20044;-66
2022/06/15 04:51:42;;;;;;;2.08;1.48;;;20.80;63.80;;;;;;4192005;28;20060;-66
2022/06/15 04:54:09;;;;;;;0.00;0.00;;;20.90;63.90;;;;;;4191448;28;20076;-66
2022/06/15 04:56:36;;;;;;;;;;;20.90;64.00;;;;;;4221010;28;20048;-66
2022/06/15 04:59:02;;;;;;;0.00;0.00;;;20.80;63.80;;;;;;4192455;28;20381;-66
2022/06/15 05:01:24;;;;;;;0.00;0.00;;;20.80;63.90;;;;;;4192294;28;20101;-66
2022/06/15 05:03:47;;;;;;;0.28;0.28;;;20.80;64.00;;;;;;4192134;28;20438;-66
2022/06/15 05:06:10;;;;;;;3.15;0.77;;;20.80;64.00;;;;;;4191981;28;20514;-67
2022/06/15 05:08:33;;;;;;;0.00;0.00;;;20.80;64.00;;;;;;4177697;28;20056;-66
2022/06/15 05:10:57;;;;;;;0.00;0.00;;;20.80;64.00;;;;;;4190801;28;20059;-68
2022/06/15 05:13:22;;;;;;;0.00;0.00;;;20.80;64.00;;;;;;4205707;28;20040;-65
2022/06/15 05:15:47;;;;;;;0.00;0.00;;;20.80;64.40;;;;;;4177852;28;20495;-70
2022/06/15 05:18:09;;;;;;;0.00;0.00;;;20.90;65.20;;;;;;4192140;28;20052;-64
2022/06/15 05:20:37;;;;;;;0.05;0.05;;;20.90;65.60;;;;;;4192020;28;20052;-65
2022/06/15 05:22:59;;;;;;;0.22;0.22;;;20.90;65.50;;;;;;4177131;28;20547;-64
2022/06/15 05:25:41;;;;;;;0.00;0.00;;;21.00;65.10;;;;;;4193254;28;20041;-64
2022/06/15 05:28:05;;;;;;;0.00;0.00;;;21.00;65.00;;;;;;4180732;28;20052;-65
2022/06/15 05:30:29;;;;;;;0.00;0.00;;;21.00;65.00;;;;;;4170991;28;20079;-64
2022/06/15 05:32:51;;;;;;;0.00;0.00;;;20.90;64.90;;;;;;4175189;28;20566;-64
2022/06/15 05:35:14;;;;;;;0.00;0.00;;;20.90;65.00;;;;;;4175061;28;20099;-66
2022/06/15 05:37:36;;;;;;;0.10;0.10;;;20.90;65.00;;;;;;4175922;28;20178;-66
2022/06/15 05:39:58;;;;;;;0.00;0.00;;;20.90;64.90;;;;;;4192624;28;20052;-66
2022/06/15 05:42:22;;;;;;;1.15;0.52;;;20.90;64.90;;;;;;4191439;28;20045;-66
2022/06/15 05:44:54;;;;;;;0.00;0.00;;;20.90;65.00;;;;;;4159197;28;20037;-66
2022/06/15 05:47:16;;;;;;;0.00;0.00;;;20.90;65.00;;;;;;4159986;28;20175;-66
2022/06/15 05:49:44;;;;;;;0.03;0.03;;;20.90;65.00;;;;;;4159575;28;20423;-65
2022/06/15 05:52:09;;;;;;;0.00;0.00;;;20.90;64.70;;;;;;4177591;28;20048;-66
2022/06/15 05:54:35;;;;;;;0.10;0.10;;;20.90;64.60;;;;;;4191273;28;20055;-66
2022/06/15 05:56:57;;;;;;;0.00;0.00;;;20.80;64.40;;;;;;4192226;28;20079;-66
2022/06/15 05:59:21;;;;;;;0.00;0.00;;;20.90;64.40;;;;;;4192222;28;20048;-66
2022/06/15 06:01:43;;;;;;;0.20;0.20;;;20.90;64.10;;;;;;4187069;28;20094;-65
2022/06/15 06:04:06;;;;;;;0.00;0.00;;;20.90;64.30;;;;;;4159597;28;20045;-66
2022/06/15 06:06:30;;;;;;;0.00;0.00;;;20.90;64.10;;;;;;4171887;28;20407;-66
2022/06/15 06:08:52;;;;;;;1.13;1.08;;;20.90;64.30;;;;;;4191017;28;20082;-66
2022/06/15 06:11:15;;;;;;;6.22;1.15;;;20.90;64.40;;;;;;4192445;28;20056;-67
2022/06/15 06:13:37;;;;;;;0.80;0.40;;;20.80;64.30;;;;;;4191759;28;20131;-67
2022/06/15 06:16:01;;;;;;;0.00;0.00;;;20.90;64.40;;;;;;4192477;28;20075;-66
2022/06/15 06:18:24;;;;;;;0.00;0.00;;;20.90;64.10;;;;;;4190021;28;20049;-67
2022/06/15 06:20:46;;;;;;;0.00;0.00;;;20.90;64.10;;;;;;4190627;28;20037;-66
2022/06/15 06:23:08;;;;;;;0.30;0.30;;;20.90;64.70;;;;;;4191779;28;20098;-66
2022/06/15 06:25:30;;;;;;;0.00;0.00;;;21.00;63.80;;;;;;4192158;28;20076;-67
2022/06/15 06:27:52;;;;;;;0.00;0.00;;;21.00;63.90;;;;;;4192199;28;20052;-66
2022/06/15 06:30:15;;;;;;;0.00;0.00;;;21.10;63.60;;;;;;4192268;28;20059;-66
2022/06/15 06:32:39;;;;;;;0.00;0.00;;;21.10;62.40;;;;;;4192257;28;20052;-66
2022/06/15 06:35:00;;;;;;;0.00;0.00;;;21.10;62.30;;;;;;4191940;28;20055;-66
2022/06/15 06:37:24;;;;;;;0.00;0.00;;;21.20;62.30;;;;;;4169051;28;20049;-66
2022/06/15 06:39:45;;;;;;;0.00;0.00;;;21.20;62.30;;;;;;4175612;28;20053;-66
2022/06/15 06:42:08;;;;;;;0.00;0.00;;;21.20;62.30;;;;;;4175638;28;20037;-66
2022/06/15 06:44:31;;;;;;;0.00;0.00;;;21.20;62.20;;;;;;4175611;28;20134;-67
2022/06/15 06:46:54;;;;;;;0.00;0.00;;;21.30;62.10;;;;;;4175729;28;20048;-67
2022/06/15 06:49:19;;;;;;;0.40;0.40;;;21.40;62.10;;;;;;4175642;28;20052;-67
2022/06/15 06:51:42;;;;;;;0.20;0.20;;;21.40;61.90;;;;;;4175934;28;20411;-66
2022/06/15 06:54:05;;;;;;;0.00;0.00;;;21.50;61.70;;;;;;4175171;28;20172;-66
2022/06/15 06:56:27;;;;;;;0.22;0.22;;;21.60;61.50;;;;;;4175485;28;20408;-66
2022/06/15 06:58:49;;;;;;;0.20;0.20;;;21.70;61.20;;;;;;4175281;28;20055;-66
2022/06/15 07:01:11;;;;;;;0.00;0.00;;;21.80;60.70;;;;;;4175299;28;20514;-66
2022/06/15 07:03:33;;;;;;;0.00;0.00;;;21.80;60.60;;;;;;4175722;28;20165;-66
2022/06/15 07:06:01;;;;;;;0.10;0.10;;;21.90;60.30;;;;;;4175120;28;20118;-66
2022/06/15 07:08:24;;;;;;;0.00;0.00;;;22.00;60.10;;;;;;4174158;28;20755;-66
2022/06/15 07:10:45;;;;;;;0.28;0.28;;;22.10;60.00;;;;;;4181435;28;20048;-66
2022/06/15 07:13:08;;;;;;;0.98;0.98;;;22.10;59.80;;;;;;4191698;28;20521;-66
2022/06/15 07:15:31;;;;;;;0.10;0.10;;;22.20;59.60;;;;;;4191966;28;20044;-67
2022/06/15 07:17:54;;;;;;;0.00;0.00;;;22.20;59.60;;;;;;4191824;28;20055;-66
2022/06/15 07:20:16;;;;;;;0.10;0.10;;;22.30;59.50;;;;;;4191151;28;20052;-66
2022/06/15 07:22:40;;;;;;;0.00;0.00;;;22.30;59.40;;;;;;4174854;28;20040;-67
2022/06/15 07:25:03;;;;;;;0.00;0.00;;;22.30;59.40;;;;;;4175033;28;20081;-67
2022/06/15 07:27:25;;;;;;;2.28;0.90;;;22.30;59.30;;;;;;4174866;28;20407;-67
2022/06/15 07:29:47;;;;;;;0.00;0.00;;;22.30;59.60;;;;;;4175515;28;20458;-67
2022/06/15 07:32:10;;;;;;;0.10;0.10;;;22.30;60.30;;;;;;4175328;28;20534;-67
2022/06/15 07:34:32;;;;;;;0.00;0.00;;;22.30;60.70;;;;;;4180188;28;20041;-67
2022/06/15 07:36:54;;;;;;;0.00;0.00;;;22.30;60.90;;;;;;4177375;28;20094;-67
2022/06/15 07:39:22;;;;;;;0.10;0.10;;;22.30;61.00;;;;;;4173602;28;20045;-67
2022/06/15 07:41:44;;;;;;;0.00;0.00;;;22.20;61.00;;;;;;4175335;28;20091;-66
2022/06/15 07:44:07;;;;;;;0.75;0.75;;;22.20;61.10;;;;;;4166568;28;20081;-69
2022/06/15 07:46:29;;;;;;;0.03;0.03;;;22.20;61.10;;;;;;4156760;28;20049;-65
2022/06/15 07:51:34;;;;;;;0.00;0.00;;;22.20;60.90;;;;;;4166959;28;20981;-67
2022/06/15 07:53:56;;;;;;;0.00;0.00;;;22.10;60.90;;;;;;4173005;28;20044;-68
2022/06/15 07:56:20;;;;;;;0.65;0.63;;;22.10;61.50;;;;;;4157288;28;20045;-68
2022/06/15 07:58:42;;;;;;;0.00;0.00;;;22.10;61.70;;;;;;4173242;28;20141;-68
2022/06/15 08:01:04;;;;;;;3.40;0.32;;;22.10;61.80;;;;;;4174766;28;20049;-67
2022/06/15 08:03:26;;;;;;;0.00;0.00;;;22.10;61.80;;;;;;4160468;28;20064;-68
2022/06/15 08:05:50;;;;;;;0.90;0.90;;;22.10;61.90;;;;;;4174642;28;20552;-68
2022/06/15 08:08:15;;;;;;;2.28;1.20;;;22.10;61.90;;;;;;4159562;28;20503;-68
2022/06/15 08:10:38;;;;;;;0.00;0.00;;;22.10;61.80;;;;;;4159490;28;20550;-68
2022/06/15 08:13:02;;;;;;;0.28;0.28;;;22.10;61.20;;;;;;4193128;28;20476;-68
2022/06/15 08:15:24;;;;;;;0.00;0.00;;;22.10;61.60;;;;;;4143784;28;20046;-69
2022/06/15 08:17:48;;;;;;;0.00;0.00;;;22.10;61.50;;;;;;4159471;28;20459;-68
2022/06/15 08:20:14;;;;;;;0.00;0.00;;;22.10;61.30;;;;;;4174676;28;20126;-67
2022/06/15 08:22:39;;;;;;;1.40;1.13;;;22.10;61.20;;;;;;4158630;28;20142;-68
2022/06/15 08:25:04;;;;;;;0.17;0.17;;;22.10;61.20;;;;;;4165730;28;20152;-68
2022/06/15 08:27:26;;;;;;;0.38;0.38;;;22.10;61.00;;;;;;4170679;28;20049;-68
2022/06/15 08:29:50;;;;;;;0.00;0.00;;;22.10;60.90;;;;;;4171626;28;20045;-68
2022/06/15 08:32:13;;;;;;;0.00;0.00;;;22.20;60.80;;;;;;4167542;28;20049;-68
2022/06/15 08:34:37;;;;;;;0.00;0.00;;;22.20;60.60;;;;;;4191212;28;20056;-67
2022/06/15 08:36:59;;;;;;;0.13;0.13;;;22.20;60.70;;;;;;4160233;28;20064;-68
2022/06/15 08:39:21;;;;;;;0.00;0.00;;;22.20;60.60;;;;;;4158531;28;20053;-67
2022/06/15 08:41:50;;;;;;;0.00;0.00;;;22.30;60.60;;;;;;4166808;28;20056;-67
2022/06/15 08:44:22;;;;;;;0.20;0.20;;;22.30;60.50;;;;;;4170048;28;20060;-67
2022/06/15 08:46:52;;;;;;;0.00;0.00;;;22.30;60.40;;;;;;4167043;28;20053;-67
2022/06/15 08:49:31;;;;;;;0.63;0.47;;;22.40;60.40;;;;;;4162803;28;20060;-67
2022/06/15 08:51:59;;;;;;;0.10;0.10;;;22.40;60.30;;;;;;4174288;28;20076;-67
2022/06/15 08:54:27;;;;;;;0.00;0.00;;;22.50;59.60;;;;;;4158345;28;20107;-67
2022/06/15 08:56:54;;;;;;;0.00;0.00;;;22.50;59.80;;;;;;4158768;28;20073;-67
2022/06/15 08:59:25;;;;;;;0.00;0.00;;;22.60;59.60;;;;;;4161068;28;20045;-67
2022/06/15 09:01:53;;;;;;;;;;;22.60;59.40;;;;;;4168242;28;20049;-67
2022/06/15 09:04:28;;;;;;;0.00;0.00;;;22.60;58.40;;;;;;4173896;28;20460;-67
2022/06/15 09:07:07;;;;;;;0.00;0.00;;;22.70;58.90;;;;;;4165952;28;20451;-67
2022/06/15 09:09:40;;;;;;;0.00;0.00;;;22.60;59.00;;;;;;4167528;28;20080;-66
2022/06/15 09:15:08;;;;;;;0.00;0.00;;;22.60;58.70;;;;;;4173928;28;20518;-67
2022/06/15 09:17:32;;;;;;;0.20;0.20;;;22.60;58.80;;;;;;4174159;28;20064;-67
2022/06/15 09:20:01;;;;;;;0.00;0.00;;;22.70;58.70;;;;;;4186645;28;20082;-67
2022/06/15 09:22:27;;;;;;;0.00;0.00;;;22.70;58.70;;;;;;4173925;28;20139;-67
2022/06/15 09:24:52;;;;;;;0.00;0.00;;;22.70;58.60;;;;;;4173615;28;20178;-67
2022/06/15 09:27:24;;;;;;;0.22;0.22;;;22.70;58.70;;;;;;4172278;28;20082;-67
2022/06/15 09:29:53;;;;;;;0.00;0.00;;;22.70;58.80;;;;;;4173447;28;20161;-67
2022/06/15 09:32:20;;;;;;;0.00;0.00;;;22.70;58.50;;;;;;4164069;28;20056;-67
2022/06/15 09:34:49;;;;;;;0.00;0.00;;;22.60;58.70;;;;;;4173318;28;20060;-67
2022/06/15 09:37:15;;;;;;;0.38;0.38;;;22.70;58.60;;;;;;4173962;28;20660;-67
2022/06/15 09:39:37;;;;;;;0.00;0.00;;;22.70;58.60;;;;;;4170821;28;20057;-67
2022/06/15 09:42:11;;;;;;;0.00;0.00;;;22.70;58.40;;;;;;4173684;28;20115;-67
2022/06/15 09:44:41;;;;;;;1.85;1.13;;;22.80;58.40;;;;;;4158492;28;20053;-67
2022/06/15 09:47:18;;;;;;;0.00;0.00;;;22.70;58.50;;;;;;4165586;28;20207;-66
2022/06/15 09:49:53;;;;;;;0.55;0.55;;;22.70;58.40;;;;;;4165213;28;20119;-66
2022/06/15 09:52:23;;;;;;;0.00;0.00;;;22.80;57.90;;;;;;4162615;28;20084;-68
2022/06/15 09:54:58;;;;;;;0.00;0.00;;;22.80;58.10;;;;;;4157515;28;20130;-67
2022/06/15 09:57:21;;;;;;;0.00;0.00;;;22.80;58.10;;;;;;4157487;28;20053;-67
2022/06/15 09:59:43;;;;;;;0.60;0.60;;;22.80;58.70;;;;;;4158129;28;20049;-68
2022/06/15 10:02:16;;;;;;;0.00;0.00;;;22.90;57.40;;;;;;4158906;28;21180;-67
2022/06/15 10:04:43;;;;;;;0.57;0.57;;;22.90;57.30;;;;;;4171124;28;20869;-67
2022/06/15 10:07:12;;;;;;;0.00;0.00;;;22.90;57.40;;;;;;4159496;28;20107;-67
2022/06/15 10:09:38;;;;;;;0.00;0.00;;;23.00;57.10;;;;;;4167327;28;20048;-67
2022/06/15 10:14:38;;;;;;;0.00;0.00;;;23.10;56.90;;;;;;4171872;28;20053;-64
2022/06/15 10:17:04;;;;;;;0.00;0.00;;;23.10;56.80;;;;;;4184162;28;20139;-67
2022/06/15 10:19:28;;;;;;;0.00;0.00;;;23.20;56.70;;;;;;4172959;28;21096;-66
2022/06/15 10:21:54;;;;;;;0.00;0.00;;;23.20;56.60;;;;;;4171666;28;20052;-66
2022/06/15 10:24:25;;;;;;;0.13;0.13;;;23.20;56.60;;;;;;4172864;28;20056;-67
2022/06/15 10:26:48;;;;;;;0.03;0.03;;;23.30;56.60;;;;;;4158680;28;20494;-66
2022/06/15 10:29:31;;;;;;;0.00;0.00;;;23.30;56.20;;;;;;4161682;28;20136;-67
2022/06/15 10:32:15;;;;;;;0.65;0.65;;;23.30;56.20;;;;;;4173241;28;20415;-67
2022/06/15 10:34:54;;;;;;;0.00;0.00;;;23.30;56.00;;;;;;4170459;28;20045;-66
2022/06/15 10:37:21;;;;;;;0.20;0.20;;;23.20;56.00;;;;;;4157011;28;20067;-67
2022/06/15 10:39:49;;;;;;;0.10;0.10;;;23.30;55.90;;;;;;4172070;28;20049;-67
2022/06/15 10:42:19;;;;;;;0.75;0.52;;;23.20;55.80;;;;;;4170512;28;20441;-67
2022/06/15 10:44:51;;;;;;;0.00;0.00;;;23.20;55.50;;;;;;4167113;28;20075;-68
2022/06/15 10:47:20;;;;;;;0.20;0.20;;;23.20;55.70;;;;;;4164622;28;20140;-67
2022/06/15 10:49:46;;;;;;;0.00;0.00;;;23.20;55.40;;;;;;4164006;28;20694;-67
2022/06/15 10:52:18;;;;;;;0.00;0.00;;;23.20;55.60;;;;;;4165292;28;20057;-68
2022/06/15 11:02:50;;;;;;;0.00;0.00;;;23.20;55.70;;;;;;4160033;28;20056;-68
2022/06/15 11:05:15;;;;;;;0.00;0.00;;;23.20;55.70;;;;;;4176283;28;20098;-68
2022/06/15 11:07:43;;;;;;;0.00;0.00;;;23.20;55.80;;;;;;4190793;28;20053;-68
2022/06/15 11:10:11;;;;;;;0.00;0.00;;;23.20;55.80;;;;;;4191778;28;20054;-68
2022/06/15 11:12:37;;;;;;;0.00;0.00;;;23.20;56.10;;;;;;4191986;28;20052;-68
2022/06/15 11:15:05;;;;;;;0.00;0.00;;;23.30;56.30;;;;;;4190617;28;20114;-68
2022/06/15 11:20:25;;;;;;;0.00;0.00;;;23.30;56.40;;;;;;4175268;28;20157;-67
2022/06/15 11:22:50;;;;;;;0.10;0.10;;;23.30;56.30;;;;;;4200797;28;20089;-66
2022/06/15 11:25:17;;;;;;;4.47;1.45;;;23.40;56.00;;;;;;4178601;28;20084;-67
2022/06/15 11:27:45;;;;;;;0.00;0.00;;;23.40;55.60;;;;;;4177047;28;20045;-67
2022/06/15 11:30:18;;;;;;;0.00;0.00;;;23.40;55.80;;;;;;4178657;28;20067;-67
2022/06/15 11:32:45;;;;;;;0.10;0.10;;;23.40;55.80;;;;;;4177605;28;20067;-67
2022/06/15 11:35:22;;;;;;;0.00;0.00;;;23.30;55.70;;;;;;4178821;28;20063;-67
2022/06/15 11:37:49;;;;;;;0.00;0.00;;;23.30;55.70;;;;;;4178504;28;20056;-67
2022/06/15 11:40:19;;;;;;;0.00;0.00;;;23.30;55.50;;;;;;4175828;28;20196;-67
2022/06/15 11:42:45;;;;;;;0.00;0.00;;;23.30;55.40;;;;;;4178592;28;20102;-67
2022/06/15 11:45:14;;;;;;;3.40;1.10;;;23.30;55.30;;;;;;4178271;28;20071;-67
2022/06/15 11:47:50;;;;;;;0.47;0.47;;;23.30;55.30;;;;;;4178401;28;20106;-67
2022/06/15 11:50:20;;;;;;;0.00;0.00;;;23.30;55.50;;;;;;4177961;28;20498;-67
2022/06/15 11:52:53;;;;;;;0.00;0.00;;;23.30;55.40;;;;;;4176718;28;20041;-66
2022/06/15 11:55:28;;;;;;;0.00;0.00;;;23.40;55.50;;;;;;4177664;28;20407;-66
2022/06/15 11:58:28;;;;;;;0.10;0.10;;;23.30;55.10;;;;;;4176455;28;20057;-67
2022/06/15 12:00:59;;;;;;;0.00;0.00;;;23.40;55.40;;;;;;4177247;28;20055;-67
2022/06/15 12:03:35;;;;;;;1.65;0.98;;;23.40;55.30;;;;;;4177697;28;20136;-67
2022/06/15 12:06:03;;;;;;;0.00;0.00;;;23.40;55.30;;;;;;4177830;28;20051;-67
2022/06/15 12:08:35;;;;;;;0.00;0.00;;;23.40;54.70;;;;;;4177306;28;20124;-67
2022/06/15 12:11:02;;;;;;;0.30;0.30;;;23.40;54.70;;;;;;4177228;28;20045;-67
2022/06/15 12:13:40;;;;;;;0.30;0.30;;;23.40;55.00;;;;;;4177806;28;20138;-66
2022/06/15 12:16:09;;;;;;;0.10;0.10;;;23.50;55.10;;;;;;4176955;28;20060;-67
2022/06/15 12:19:01;;;;;;;0.10;0.10;;;23.40;55.00;;;;;;4177363;28;20411;-67
2022/06/15 12:21:29;;;;;;;0.28;0.28;;;23.40;54.70;;;;;;4144592;28;20053;-67
2022/06/15 12:23:59;;;;;;;1.23;0.15;;;23.40;54.60;;;;;;4144472;28;20046;-67
2022/06/15 12:26:37;;;;;;;0.00;0.00;;;23.40;54.30;;;;;;4144768;28;20057;-67
2022/06/15 12:29:05;;;;;;;0.73;0.28;;;23.40;54.60;;;;;;4144336;28;20052;-67
2022/06/15 12:31:37;;;;;;;0.00;0.00;;;23.40;54.30;;;;;;4177128;28;20047;-68
2022/06/15 12:34:07;;;;;;;0.00;0.00;;;23.40;53.80;;;;;;4176959;28;20495;-67
2022/06/15 12:36:37;;;;;;;0.00;0.00;;;23.40;53.50;;;;;;4177291;28;20048;-66
2022/06/15 12:39:09;;;;;;;0.00;0.00;;;23.40;54.20;;;;;;4177893;28;20056;-68
2022/06/15 12:44:20;;;;;;;0.10;0.10;;;23.40;54.40;;;;;;4162708;28;20048;-68
2022/06/15 12:46:44;;;;;;;4.30;0.45;;;23.40;54.10;;;;;;4160620;28;20037;-68
2022/06/15 12:49:34;;;;;;;0.00;0.00;;;23.30;53.90;;;;;;4160594;28;20103;-68
2022/06/15 12:52:04;;;;;;;0.30;0.30;;;23.40;53.80;;;;;;4160585;28;20065;-67
2022/06/15 12:54:35;;;;;;;0.00;0.00;;;23.40;53.70;;;;;;4160436;28;20042;-66
2022/06/15 12:57:04;;;;;;;0.10;0.10;;;23.40;53.60;;;;;;4160366;28;20117;-66
2022/06/15 12:59:37;;;;;;;0.10;0.10;;;23.40;53.90;;;;;;4185195;28;20040;-67
2022/06/15 13:02:06;;;;;;;0.00;0.00;;;23.40;53.60;;;;;;4193534;28;20066;-67
2022/06/15 13:04:37;;;;;;;0.00;0.00;;;23.40;53.60;;;;;;4186997;28;20464;-67
2022/06/15 13:07:20;;;;;;;0.00;0.00;;;23.40;53.50;;;;;;4176979;28;20060;-67
2022/06/15 13:10:03;;;;;;;0.00;0.00;;;23.40;52.90;;;;;;4177050;28;20144;-67
2022/06/15 13:12:35;;;;;;;0.00;0.00;;;23.40;52.10;;;;;;4177721;28;20471;-67